sensor_id;sensor_type;location;lat;lon;timestamp;temperature;humidity
46508;DHT22;32223;53.654;10.014;2023-03-23T00:01:54;10.40;99.90
46508;DHT22;32223;53.654;10.014;2023-03-23T00:04:20;10.40;99.90
46508;DHT22;32223;53.654;10.014;2023-03-23T00:06:46;10.40;99.90
46508;DHT22;32223;53.654;10.014;2023-03-23T00:09:15;10.40;99.90
46508;DHT22;32223;53.654;10.014;2023-03-23T00:11:42;10.40;99.90
46508;DHT22;32223;53.654;10.014;2023-03-23T00:14:09;10.40;99.90
46508;DHT22;32223;53.654;10.014;2023-03-23T00:16:39;10.30;99.90
46508;DHT22;32223;53.654;10.014;2023-03-23T00:19:09;10.30;99.90
46508;DHT22;32223;53.654;10.014;2023-03-23T00:21:37;10.30;99.90
46508;DHT22;32223;53.654;10.014;2023-03-23T00:24:05;10.30;99.90
46508;DHT22;32223;53.654;10.014;2023-03-23T00:26:32;10.20;99.90
46508;DHT22;32223;53.654;10.014;2023-03-23T00:29:00;10.20;99.90
46508;DHT22;32223;53.654;10.014;2023-03-23T00:31:26;10.20;99.90
46508;DHT22;32223;53.654;10.014;2023-03-23T00:33:57;10.20;99.90
46508;DHT22;32223;53.654;10.014;2023-03-23T00:36:24;10.20;99.90
46508;DHT22;32223;53.654;10.014;2023-03-23T00:38:49;10.10;99.90
46508;DHT22;32223;53.654;10.014;2023-03-23T00:41:15;10.10;99.90
46508;DHT22;32223;53.654;10.014;2023-03-23T00:43:41;10.20;99.90
46508;DHT22;32223;53.654;10.014;2023-03-23T00:46:06;10.20;99.90
46508;DHT22;32223;53.654;10.014;2023-03-23T00:48:37;10.20;99.90
46508;DHT22;32223;53.654;10.014;2023-03-23T00:51:10;10.20;99.90
46508;DHT22;32223;53.654;10.014;2023-03-23T00:53:37;10.20;99.90
46508;DHT22;32223;53.654;10.014;2023-03-23T00:56:02;10.20;99.90
46508;DHT22;32223;53.654;10.014;2023-03-23T00:58:28;10.20;99.90
46508;DHT22;32223;53.654;10.014;2023-03-23T01:00:54;10.20;99.90
46508;DHT22;32223;53.654;10.014;2023-03-23T01:03:19;10.20;99.90
46508;DHT22;32223;53.654;10.014;2023-03-23T01:05:46;10.30;99.90
46508;DHT22;32223;53.654;10.014;2023-03-23T01:08:17;10.20;99.90
46508;DHT22;32223;53.654;10.014;2023-03-23T01:10:44;10.20;99.90
46508;DHT22;32223;53.654;10.014;2023-03-23T01:13:10;10.20;99.90
46508;DHT22;32223;53.654;10.014;2023-03-23T01:15:36;10.20;99.90
46508;DHT22;32223;53.654;10.014;2023-03-23T01:18:02;10.30;99.90
46508;DHT22;32223;53.654;10.014;2023-03-23T01:20:27;10.20;99.90
46508;DHT22;32223;53.654;10.014;2023-03-23T01:22:54;10.20;99.90
46508;DHT22;32223;53.654;10.014;2023-03-23T01:25:26;10.20;99.90
46508;DHT22;32223;53.654;10.014;2023-03-23T01:27:52;10.20;99.90
46508;DHT22;32223;53.654;10.014;2023-03-23T01:30:18;10.20;99.90
46508;DHT22;32223;53.654;10.014;2023-03-23T01:32:44;10.30;99.90
46508;DHT22;32223;53.654;10.014;2023-03-23T01:35:09;10.20;99.90
46508;DHT22;32223;53.654;10.014;2023-03-23T01:37:37;10.20;99.90
46508;DHT22;32223;53.654;10.014;2023-03-23T01:40:02;10.30;99.90
46508;DHT22;32223;53.654;10.014;2023-03-23T01:42:32;10.30;99.90
46508;DHT22;32223;53.654;10.014;2023-03-23T01:47:56;10.20;99.90
46508;DHT22;32223;53.654;10.014;2023-03-23T01:50:24;10.20;99.90
46508;DHT22;32223;53.654;10.014;2023-03-23T01:52:52;10.30;99.90
46508;DHT22;32223;53.654;10.014;2023-03-23T01:55:19;10.30;99.90
46508;DHT22;32223;53.654;10.014;2023-03-23T01:57:46;10.30;99.90
46508;DHT22;32223;53.654;10.014;2023-03-23T02:00:13;10.30;99.90
46508;DHT22;32223;53.654;10.014;2023-03-23T02:02:43;10.30;99.90
46508;DHT22;32223;53.654;10.014;2023-03-23T02:05:13;10.30;99.90
46508;DHT22;32223;53.654;10.014;2023-03-23T02:07:39;10.30;99.90
46508;DHT22;32223;53.654;10.014;2023-03-23T02:10:05;10.30;99.90
46508;DHT22;32223;53.654;10.014;2023-03-23T02:12:32;10.30;99.90
46508;DHT22;32223;53.654;10.014;2023-03-23T02:14:57;10.30;99.90
46508;DHT22;32223;53.654;10.014;2023-03-23T02:17:49;10.40;99.90
46508;DHT22;32223;53.654;10.014;2023-03-23T02:23:21;10.30;99.90
46508;DHT22;32223;53.654;10.014;2023-03-23T02:34:38;10.30;99.90
46508;DHT22;32223;53.654;10.014;2023-03-23T02:37:11;10.30;99.90
46508;DHT22;32223;53.654;10.014;2023-03-23T02:39:47;10.30;99.90
46508;DHT22;32223;53.654;10.014;2023-03-23T02:42:21;10.30;99.90
46508;DHT22;32223;53.654;10.014;2023-03-23T02:44:49;10.30;99.90
46508;DHT22;32223;53.654;10.014;2023-03-23T02:47:19;10.40;99.90
46508;DHT22;32223;53.654;10.014;2023-03-23T02:49:48;10.40;99.90
46508;DHT22;32223;53.654;10.014;2023-03-23T02:52:19;10.30;99.90
46508;DHT22;32223;53.654;10.014;2023-03-23T02:54:48;10.30;99.90
46508;DHT22;32223;53.654;10.014;2023-03-23T02:57:15;10.40;99.90
46508;DHT22;32223;53.654;10.014;2023-03-23T02:59:41;10.30;99.90
46508;DHT22;32223;53.654;10.014;2023-03-23T03:02:11;10.30;99.90
46508;DHT22;32223;53.654;10.014;2023-03-23T03:04:39;10.40;99.90
46508;DHT22;32223;53.654;10.014;2023-03-23T03:07:33;10.30;99.90
46508;DHT22;32223;53.654;10.014;2023-03-23T03:12:56;10.40;99.90
46508;DHT22;32223;53.654;10.014;2023-03-23T03:15:31;10.30;99.90
46508;DHT22;32223;53.654;10.014;2023-03-23T03:20:53;10.40;99.90
46508;DHT22;32223;53.654;10.014;2023-03-23T03:23:22;10.30;99.90
46508;DHT22;32223;53.654;10.014;2023-03-23T03:25:48;10.30;99.90
46508;DHT22;32223;53.654;10.014;2023-03-23T03:28:19;10.40;99.90
46508;DHT22;32223;53.654;10.014;2023-03-23T03:30:52;10.30;99.90
46508;DHT22;32223;53.654;10.014;2023-03-23T03:33:19;10.30;99.90
46508;DHT22;32223;53.654;10.014;2023-03-23T03:35:46;10.30;99.90
46508;DHT22;32223;53.654;10.014;2023-03-23T03:38:13;10.40;99.90
46508;DHT22;32223;53.654;10.014;2023-03-23T03:40:38;10.40;99.90
46508;DHT22;32223;53.654;10.014;2023-03-23T03:43:04;10.30;99.90
46508;DHT22;32223;53.654;10.014;2023-03-23T03:45:31;10.30;99.90
46508;DHT22;32223;53.654;10.014;2023-03-23T03:47:56;10.40;99.90
46508;DHT22;32223;53.654;10.014;2023-03-23T03:50:22;10.40;99.90
46508;DHT22;32223;53.654;10.014;2023-03-23T03:52:48;10.40;99.90
46508;DHT22;32223;53.654;10.014;2023-03-23T03:55:14;10.40;99.90
46508;DHT22;32223;53.654;10.014;2023-03-23T03:57:42;10.40;99.90
46508;DHT22;32223;53.654;10.014;2023-03-23T04:00:09;10.40;99.90
46508;DHT22;32223;53.654;10.014;2023-03-23T04:02:39;10.40;99.90
46508;DHT22;32223;53.654;10.014;2023-03-23T04:05:06;10.50;99.90
46508;DHT22;32223;53.654;10.014;2023-03-23T04:07:31;10.50;99.90
46508;DHT22;32223;53.654;10.014;2023-03-23T04:09:57;10.60;99.90
46508;DHT22;32223;53.654;10.014;2023-03-23T04:12:23;10.60;99.90
46508;DHT22;32223;53.654;10.014;2023-03-23T04:14:48;10.60;99.90
46508;DHT22;32223;53.654;10.014;2023-03-23T04:17:14;10.60;99.90
46508;DHT22;32223;53.654;10.014;2023-03-23T04:19:40;10.60;99.90
46508;DHT22;32223;53.654;10.014;2023-03-23T04:22:05;10.60;99.90
46508;DHT22;32223;53.654;10.014;2023-03-23T04:24:31;10.70;99.90
46508;DHT22;32223;53.654;10.014;2023-03-23T04:26:59;10.70;99.90
46508;DHT22;32223;53.654;10.014;2023-03-23T04:29:25;10.70;99.90
46508;DHT22;32223;53.654;10.014;2023-03-23T04:31:52;10.70;99.90
46508;DHT22;32223;53.654;10.014;2023-03-23T04:34:18;10.70;99.90
46508;DHT22;32223;53.654;10.014;2023-03-23T04:36:44;10.70;99.90
46508;DHT22;32223;53.654;10.014;2023-03-23T04:39:09;10.70;99.90
46508;DHT22;32223;53.654;10.014;2023-03-23T04:41:41;10.70;99.90
46508;DHT22;32223;53.654;10.014;2023-03-23T04:44:07;10.70;99.90
46508;DHT22;32223;53.654;10.014;2023-03-23T04:46:33;10.70;99.90
46508;DHT22;32223;53.654;10.014;2023-03-23T04:48:59;10.60;99.90
46508;DHT22;32223;53.654;10.014;2023-03-23T04:51:29;10.60;99.90
46508;DHT22;32223;53.654;10.014;2023-03-23T04:53:56;10.60;99.90
46508;DHT22;32223;53.654;10.014;2023-03-23T04:56:22;10.60;99.90
46508;DHT22;32223;53.654;10.014;2023-03-23T04:58:47;10.60;99.90
46508;DHT22;32223;53.654;10.014;2023-03-23T05:01:13;10.50;99.90
46508;DHT22;32223;53.654;10.014;2023-03-23T05:03:43;10.50;99.90
46508;DHT22;32223;53.654;10.014;2023-03-23T05:06:09;10.60;99.90
46508;DHT22;32223;53.654;10.014;2023-03-23T05:08:35;10.50;99.90
46508;DHT22;32223;53.654;10.014;2023-03-23T05:11:05;10.50;99.90
46508;DHT22;32223;53.654;10.014;2023-03-23T05:13:31;10.50;99.90
46508;DHT22;32223;53.654;10.014;2023-03-23T05:15:57;10.50;99.90
46508;DHT22;32223;53.654;10.014;2023-03-23T05:18:23;10.50;99.90
46508;DHT22;32223;53.654;10.014;2023-03-23T05:20:49;10.50;99.90
46508;DHT22;32223;53.654;10.014;2023-03-23T05:23:18;10.50;99.90
46508;DHT22;32223;53.654;10.014;2023-03-23T05:25:53;10.50;99.90
46508;DHT22;32223;53.654;10.014;2023-03-23T05:28:18;10.60;99.90
46508;DHT22;32223;53.654;10.014;2023-03-23T05:30:44;10.50;99.90
46508;DHT22;32223;53.654;10.014;2023-03-23T05:33:10;10.60;99.90
46508;DHT22;32223;53.654;10.014;2023-03-23T05:35:35;10.60;99.90
46508;DHT22;32223;53.654;10.014;2023-03-23T05:38:01;10.60;99.90
46508;DHT22;32223;53.654;10.014;2023-03-23T05:40:27;10.70;99.90
46508;DHT22;32223;53.654;10.014;2023-03-23T05:42:53;10.70;99.90
46508;DHT22;32223;53.654;10.014;2023-03-23T05:45:21;10.70;99.90
46508;DHT22;32223;53.654;10.014;2023-03-23T05:47:48;10.70;99.90
46508;DHT22;32223;53.654;10.014;2023-03-23T05:50:13;10.70;99.90
46508;DHT22;32223;53.654;10.014;2023-03-23T05:52:40;10.70;99.90
46508;DHT22;32223;53.654;10.014;2023-03-23T05:55:06;10.70;99.90
46508;DHT22;32223;53.654;10.014;2023-03-23T05:57:33;10.70;99.90
46508;DHT22;32223;53.654;10.014;2023-03-23T05:59:58;10.70;99.90
46508;DHT22;32223;53.654;10.014;2023-03-23T06:02:25;10.70;99.90
46508;DHT22;32223;53.654;10.014;2023-03-23T06:04:53;10.70;99.90
46508;DHT22;32223;53.654;10.014;2023-03-23T06:07:26;10.60;99.90
46508;DHT22;32223;53.654;10.014;2023-03-23T06:09:52;10.70;99.90
46508;DHT22;32223;53.654;10.014;2023-03-23T06:12:18;10.60;99.90
46508;DHT22;32223;53.654;10.014;2023-03-23T06:14:47;10.60;99.90
46508;DHT22;32223;53.654;10.014;2023-03-23T06:17:15;10.60;99.90
46508;DHT22;32223;53.654;10.014;2023-03-23T06:19:42;10.60;99.90
46508;DHT22;32223;53.654;10.014;2023-03-23T06:22:08;10.60;99.90
46508;DHT22;32223;53.654;10.014;2023-03-23T06:24:33;10.60;99.90
46508;DHT22;32223;53.654;10.014;2023-03-23T06:26:59;10.50;99.90
46508;DHT22;32223;53.654;10.014;2023-03-23T06:29:25;10.60;99.90
46508;DHT22;32223;53.654;10.014;2023-03-23T06:31:57;10.50;99.90
46508;DHT22;32223;53.654;10.014;2023-03-23T06:34:24;10.60;99.90
46508;DHT22;32223;53.654;10.014;2023-03-23T06:36:50;10.60;99.90
46508;DHT22;32223;53.654;10.014;2023-03-23T06:39:16;10.60;99.90
46508;DHT22;32223;53.654;10.014;2023-03-23T06:41:42;10.60;99.90
46508;DHT22;32223;53.654;10.014;2023-03-23T06:44:07;10.70;99.90
46508;DHT22;32223;53.654;10.014;2023-03-23T06:46:33;10.80;99.90
46508;DHT22;32223;53.654;10.014;2023-03-23T06:48:59;10.90;99.90
46508;DHT22;32223;53.654;10.014;2023-03-23T06:51:25;10.90;99.90
46508;DHT22;32223;53.654;10.014;2023-03-23T06:53:50;11.00;99.90
46508;DHT22;32223;53.654;10.014;2023-03-23T06:56:16;11.10;99.90
46508;DHT22;32223;53.654;10.014;2023-03-23T06:58:42;11.10;99.90
46508;DHT22;32223;53.654;10.014;2023-03-23T07:01:09;11.10;99.90
46508;DHT22;32223;53.654;10.014;2023-03-23T07:03:35;11.20;99.90
46508;DHT22;32223;53.654;10.014;2023-03-23T07:06:02;11.20;99.90
46508;DHT22;32223;53.654;10.014;2023-03-23T07:08:28;11.30;99.90
46508;DHT22;32223;53.654;10.014;2023-03-23T07:10:55;11.40;99.90
46508;DHT22;32223;53.654;10.014;2023-03-23T07:13:21;11.40;99.90
46508;DHT22;32223;53.654;10.014;2023-03-23T07:15:47;11.40;99.90
46508;DHT22;32223;53.654;10.014;2023-03-23T07:18:14;11.40;99.90
46508;DHT22;32223;53.654;10.014;2023-03-23T07:20:40;11.40;99.90
46508;DHT22;32223;53.654;10.014;2023-03-23T07:23:06;11.40;99.90
46508;DHT22;32223;53.654;10.014;2023-03-23T07:25:32;11.40;99.90
46508;DHT22;32223;53.654;10.014;2023-03-23T07:28:02;11.40;99.90
46508;DHT22;32223;53.654;10.014;2023-03-23T07:30:29;11.50;99.90
46508;DHT22;32223;53.654;10.014;2023-03-23T07:32:56;11.50;99.90
46508;DHT22;32223;53.654;10.014;2023-03-23T07:35:22;11.60;99.90
46508;DHT22;32223;53.654;10.014;2023-03-23T07:37:48;11.60;99.90
46508;DHT22;32223;53.654;10.014;2023-03-23T07:40:14;11.70;99.90
46508;DHT22;32223;53.654;10.014;2023-03-23T07:42:52;11.80;99.90
46508;DHT22;32223;53.654;10.014;2023-03-23T07:45:18;11.70;99.90
46508;DHT22;32223;53.654;10.014;2023-03-23T07:47:44;11.60;99.90
46508;DHT22;32223;53.654;10.014;2023-03-23T07:50:10;11.50;99.90
46508;DHT22;32223;53.654;10.014;2023-03-23T07:52:38;11.40;99.90
46508;DHT22;32223;53.654;10.014;2023-03-23T07:55:05;11.40;99.90
46508;DHT22;32223;53.654;10.014;2023-03-23T07:57:31;11.30;99.90
46508;DHT22;32223;53.654;10.014;2023-03-23T07:59:58;11.20;99.90
46508;DHT22;32223;53.654;10.014;2023-03-23T08:02:25;11.00;99.90
46508;DHT22;32223;53.654;10.014;2023-03-23T08:04:52;11.00;99.90
46508;DHT22;32223;53.654;10.014;2023-03-23T08:07:19;10.90;99.90
46508;DHT22;32223;53.654;10.014;2023-03-23T08:09:46;10.60;99.90
46508;DHT22;32223;53.654;10.014;2023-03-23T08:12:13;10.30;99.90
46508;DHT22;32223;53.654;10.014;2023-03-23T08:14:39;9.80;99.90
46508;DHT22;32223;53.654;10.014;2023-03-23T08:17:07;9.60;99.90
46508;DHT22;32223;53.654;10.014;2023-03-23T08:19:34;9.50;99.90
46508;DHT22;32223;53.654;10.014;2023-03-23T08:22:05;9.50;99.90
46508;DHT22;32223;53.654;10.014;2023-03-23T08:24:33;9.50;99.90
46508;DHT22;32223;53.654;10.014;2023-03-23T08:26:59;9.40;99.90
46508;DHT22;32223;53.654;10.014;2023-03-23T08:29:25;9.40;99.90
46508;DHT22;32223;53.654;10.014;2023-03-23T08:31:51;9.50;99.90
46508;DHT22;32223;53.654;10.014;2023-03-23T08:34:17;9.40;99.90
46508;DHT22;32223;53.654;10.014;2023-03-23T08:36:43;9.60;99.90
46508;DHT22;32223;53.654;10.014;2023-03-23T08:39:10;9.60;99.90
46508;DHT22;32223;53.654;10.014;2023-03-23T08:41:35;9.70;99.90
46508;DHT22;32223;53.654;10.014;2023-03-23T08:44:01;9.90;99.90
46508;DHT22;32223;53.654;10.014;2023-03-23T08:46:27;9.90;99.90
46508;DHT22;32223;53.654;10.014;2023-03-23T08:48:53;10.00;99.90
46508;DHT22;32223;53.654;10.014;2023-03-23T08:51:19;10.20;99.90
46508;DHT22;32223;53.654;10.014;2023-03-23T08:53:45;10.30;99.90
46508;DHT22;32223;53.654;10.014;2023-03-23T08:56:11;10.50;99.90
46508;DHT22;32223;53.654;10.014;2023-03-23T08:58:39;10.60;99.90
46508;DHT22;32223;53.654;10.014;2023-03-23T09:01:06;10.80;99.90
46508;DHT22;32223;53.654;10.014;2023-03-23T09:03:34;10.90;99.90
46508;DHT22;32223;53.654;10.014;2023-03-23T09:06:06;10.90;99.90
46508;DHT22;32223;53.654;10.014;2023-03-23T09:08:32;11.00;99.90
46508;DHT22;32223;53.654;10.014;2023-03-23T09:11:06;11.10;99.90
46508;DHT22;32223;53.654;10.014;2023-03-23T09:13:33;11.10;99.90
46508;DHT22;32223;53.654;10.014;2023-03-23T09:15:59;11.20;99.90
46508;DHT22;32223;53.654;10.014;2023-03-23T09:18:25;11.20;99.90
46508;DHT22;32223;53.654;10.014;2023-03-23T09:20:52;11.20;99.90
46508;DHT22;32223;53.654;10.014;2023-03-23T09:23:18;11.20;99.90
46508;DHT22;32223;53.654;10.014;2023-03-23T09:25:44;11.20;99.90
46508;DHT22;32223;53.654;10.014;2023-03-23T09:28:10;11.30;99.90
46508;DHT22;32223;53.654;10.014;2023-03-23T09:30:36;11.40;99.90
46508;DHT22;32223;53.654;10.014;2023-03-23T09:33:04;11.40;99.90
46508;DHT22;32223;53.654;10.014;2023-03-23T09:35:34;11.40;99.90
46508;DHT22;32223;53.654;10.014;2023-03-23T09:38:01;11.50;99.90
46508;DHT22;32223;53.654;10.014;2023-03-23T09:40:53;11.50;99.90
46508;DHT22;32223;53.654;10.014;2023-03-23T09:43:46;11.50;99.90
46508;DHT22;32223;53.654;10.014;2023-03-23T09:49:18;11.80;99.90
46508;DHT22;32223;53.654;10.014;2023-03-23T09:51:50;11.90;99.90
46508;DHT22;32223;53.654;10.014;2023-03-23T09:54:24;12.00;99.90
46508;DHT22;32223;53.654;10.014;2023-03-23T09:56:52;12.20;99.90
46508;DHT22;32223;53.654;10.014;2023-03-23T09:59:42;12.30;99.90
46508;DHT22;32223;53.654;10.014;2023-03-23T10:02:14;12.40;99.90
46508;DHT22;32223;53.654;10.014;2023-03-23T10:04:45;12.50;99.90
46508;DHT22;32223;53.654;10.014;2023-03-23T10:07:15;12.50;99.90
46508;DHT22;32223;53.654;10.014;2023-03-23T10:09:43;12.50;99.90
46508;DHT22;32223;53.654;10.014;2023-03-23T10:12:14;12.50;99.90
46508;DHT22;32223;53.654;10.014;2023-03-23T10:17:39;12.60;99.90
46508;DHT22;32223;53.654;10.014;2023-03-23T10:25:29;13.20;99.90
46508;DHT22;32223;53.654;10.014;2023-03-23T10:30:35;13.40;99.90
46508;DHT22;32223;53.654;10.014;2023-03-23T10:33:02;13.60;99.90
46508;DHT22;32223;53.654;10.014;2023-03-23T10:35:43;13.50;99.90
46508;DHT22;32223;53.654;10.014;2023-03-23T10:38:17;13.40;99.90
46508;DHT22;32223;53.654;10.014;2023-03-23T10:40:47;13.40;99.90
46508;DHT22;32223;53.654;10.014;2023-03-23T10:43:13;13.30;99.90
46508;DHT22;32223;53.654;10.014;2023-03-23T10:45:41;13.50;99.90
46508;DHT22;32223;53.654;10.014;2023-03-23T10:48:11;13.60;99.90
46508;DHT22;32223;53.654;10.014;2023-03-23T10:50:39;13.50;99.90
46508;DHT22;32223;53.654;10.014;2023-03-23T10:53:15;13.30;99.90
46508;DHT22;32223;53.654;10.014;2023-03-23T10:55:42;13.20;99.90
46508;DHT22;32223;53.654;10.014;2023-03-23T10:58:12;13.10;99.90
46508;DHT22;32223;53.654;10.014;2023-03-23T11:00:43;13.20;99.90
46508;DHT22;32223;53.654;10.014;2023-03-23T11:05:45;13.20;99.90
46508;DHT22;32223;53.654;10.014;2023-03-23T11:08:19;13.10;99.90
46508;DHT22;32223;53.654;10.014;2023-03-23T11:10:51;13.20;99.90
46508;DHT22;32223;53.654;10.014;2023-03-23T11:13:19;13.30;99.90
46508;DHT22;32223;53.654;10.014;2023-03-23T11:15:47;13.40;99.90
46508;DHT22;32223;53.654;10.014;2023-03-23T11:18:20;13.40;99.90
46508;DHT22;32223;53.654;10.014;2023-03-23T11:20:54;13.30;99.90
46508;DHT22;32223;53.654;10.014;2023-03-23T11:23:28;13.20;99.90
46508;DHT22;32223;53.654;10.014;2023-03-23T11:26:13;13.30;99.90
46508;DHT22;32223;53.654;10.014;2023-03-23T11:31:09;13.40;99.90
46508;DHT22;32223;53.654;10.014;2023-03-23T11:33:57;13.30;99.90
46508;DHT22;32223;53.654;10.014;2023-03-23T11:36:34;13.40;99.90
46508;DHT22;32223;53.654;10.014;2023-03-23T11:39:01;13.50;99.90
46508;DHT22;32223;53.654;10.014;2023-03-23T11:41:35;13.60;99.90
46508;DHT22;32223;53.654;10.014;2023-03-23T11:44:09;13.70;99.90
46508;DHT22;32223;53.654;10.014;2023-03-23T11:47:24;13.80;99.90
46508;DHT22;32223;53.654;10.014;2023-03-23T11:49:46;13.80;99.90
46508;DHT22;32223;53.654;10.014;2023-03-23T11:52:37;13.80;99.90
46508;DHT22;32223;53.654;10.014;2023-03-23T11:57:38;14.20;99.90
46508;DHT22;32223;53.654;10.014;2023-03-23T12:00:21;14.10;99.90
46508;DHT22;32223;53.654;10.014;2023-03-23T12:05:48;13.90;99.90
46508;DHT22;32223;53.654;10.014;2023-03-23T12:14:24;13.40;99.90
46508;DHT22;32223;53.654;10.014;2023-03-23T12:19:42;13.40;99.90
46508;DHT22;32223;53.654;10.014;2023-03-23T12:30:44;13.00;99.90
46508;DHT22;32223;53.654;10.014;2023-03-23T12:44:12;13.00;99.90
46508;DHT22;32223;53.654;10.014;2023-03-23T12:55:04;13.50;99.90
46508;DHT22;32223;53.654;10.014;2023-03-23T12:57:36;13.60;99.90
46508;DHT22;32223;53.654;10.014;2023-03-23T13:08:36;13.40;99.90
46508;DHT22;32223;53.654;10.014;2023-03-23T13:11:08;14.20;99.90
46508;DHT22;32223;53.654;10.014;2023-03-23T13:13:59;15.90;99.90
46508;DHT22;32223;53.654;10.014;2023-03-23T13:16:58;17.00;99.90
46508;DHT22;32223;53.654;10.014;2023-03-23T13:22:36;17.20;99.90
46508;DHT22;32223;53.654;10.014;2023-03-23T13:25:10;16.90;99.90
46508;DHT22;32223;53.654;10.014;2023-03-23T13:27:37;16.60;99.90
46508;DHT22;32223;53.654;10.014;2023-03-23T13:30:03;16.60;99.90
46508;DHT22;32223;53.654;10.014;2023-03-23T13:32:35;17.00;99.90
46508;DHT22;32223;53.654;10.014;2023-03-23T13:35:11;17.20;99.90
46508;DHT22;32223;53.654;10.014;2023-03-23T13:37:43;17.00;99.90
46508;DHT22;32223;53.654;10.014;2023-03-23T13:42:51;15.80;99.90
46508;DHT22;32223;53.654;10.014;2023-03-23T13:50:30;14.40;99.90
46508;DHT22;32223;53.654;10.014;2023-03-23T13:53:01;14.20;99.90
46508;DHT22;32223;53.654;10.014;2023-03-23T13:56:05;14.10;99.90
46508;DHT22;32223;53.654;10.014;2023-03-23T13:58:31;13.70;99.90
46508;DHT22;32223;53.654;10.014;2023-03-23T14:01:14;13.00;99.90
46508;DHT22;32223;53.654;10.014;2023-03-23T14:03:46;12.10;99.90
46508;DHT22;32223;53.654;10.014;2023-03-23T14:06:18;11.30;99.90
46508;DHT22;32223;53.654;10.014;2023-03-23T14:08:47;10.90;99.90
46508;DHT22;32223;53.654;10.014;2023-03-23T14:11:22;10.50;99.90
46508;DHT22;32223;53.654;10.014;2023-03-23T14:14:06;10.20;99.90
46508;DHT22;32223;53.654;10.014;2023-03-23T14:16:40;10.00;99.90
46508;DHT22;32223;53.654;10.014;2023-03-23T14:21:51;9.80;99.90
46508;DHT22;32223;53.654;10.014;2023-03-23T14:24:28;9.80;99.90
46508;DHT22;32223;53.654;10.014;2023-03-23T14:27:12;9.90;99.90
46508;DHT22;32223;53.654;10.014;2023-03-23T14:29:38;10.40;99.90
46508;DHT22;32223;53.654;10.014;2023-03-23T14:32:06;11.50;99.90
46508;DHT22;32223;53.654;10.014;2023-03-23T14:34:33;12.80;99.90
46508;DHT22;32223;53.654;10.014;2023-03-23T14:37:00;14.10;99.90
46508;DHT22;32223;53.654;10.014;2023-03-23T14:39:28;15.30;99.90
46508;DHT22;32223;53.654;10.014;2023-03-23T14:42:00;16.40;99.90
46508;DHT22;32223;53.654;10.014;2023-03-23T14:44:32;17.60;99.90
46508;DHT22;32223;53.654;10.014;2023-03-23T14:47:02;18.70;99.90
46508;DHT22;32223;53.654;10.014;2023-03-23T14:49:36;19.20;99.90
46508;DHT22;32223;53.654;10.014;2023-03-23T14:52:27;19.00;99.90
46508;DHT22;32223;53.654;10.014;2023-03-23T14:54:54;19.30;99.90
46508;DHT22;32223;53.654;10.014;2023-03-23T14:57:29;19.80;99.90
46508;DHT22;32223;53.654;10.014;2023-03-23T14:59:55;20.50;99.90
46508;DHT22;32223;53.654;10.014;2023-03-23T15:02:34;20.50;99.90
46508;DHT22;32223;53.654;10.014;2023-03-23T15:05:26;20.20;99.90
46508;DHT22;32223;53.654;10.014;2023-03-23T15:07:54;18.80;99.90
46508;DHT22;32223;53.654;10.014;2023-03-23T15:10:23;18.90;99.90
46508;DHT22;32223;53.654;10.014;2023-03-23T15:12:49;18.30;99.90
46508;DHT22;32223;53.654;10.014;2023-03-23T15:15:35;17.60;99.90
46508;DHT22;32223;53.654;10.014;2023-03-23T15:18:02;17.30;99.90
46508;DHT22;32223;53.654;10.014;2023-03-23T15:20:43;16.30;99.90
46508;DHT22;32223;53.654;10.014;2023-03-23T15:23:17;15.60;99.90
46508;DHT22;32223;53.654;10.014;2023-03-23T15:25:52;14.80;99.90
46508;DHT22;32223;53.654;10.014;2023-03-23T15:28:31;14.10;99.90
46508;DHT22;32223;53.654;10.014;2023-03-23T15:31:01;13.70;99.90
46508;DHT22;32223;53.654;10.014;2023-03-23T15:33:34;13.30;99.90
46508;DHT22;32223;53.654;10.014;2023-03-23T15:36:06;13.00;99.90
46508;DHT22;32223;53.654;10.014;2023-03-23T15:38:34;12.80;99.90
46508;DHT22;32223;53.654;10.014;2023-03-23T15:41:05;12.50;99.90
46508;DHT22;32223;53.654;10.014;2023-03-23T15:43:48;12.30;99.90
46508;DHT22;32223;53.654;10.014;2023-03-23T15:48:52;11.80;99.90
46508;DHT22;32223;53.654;10.014;2023-03-23T15:51:23;11.60;99.90
46508;DHT22;32223;53.654;10.014;2023-03-23T15:53:50;11.50;99.90
46508;DHT22;32223;53.654;10.014;2023-03-23T15:56:16;11.40;99.90
46508;DHT22;32223;53.654;10.014;2023-03-23T15:58:42;11.30;99.90
46508;DHT22;32223;53.654;10.014;2023-03-23T16:01:13;11.10;99.90
46508;DHT22;32223;53.654;10.014;2023-03-23T16:04:00;11.10;99.90
46508;DHT22;32223;53.654;10.014;2023-03-23T16:06:29;11.00;99.90
46508;DHT22;32223;53.654;10.014;2023-03-23T16:08:56;11.00;99.90
46508;DHT22;32223;53.654;10.014;2023-03-23T16:11:23;11.00;99.90
46508;DHT22;32223;53.654;10.014;2023-03-23T16:13:49;10.90;99.90
46508;DHT22;32223;53.654;10.014;2023-03-23T16:16:23;10.80;99.90
46508;DHT22;32223;53.654;10.014;2023-03-23T16:18:49;10.80;99.90
46508;DHT22;32223;53.654;10.014;2023-03-23T16:21:15;10.80;99.90
46508;DHT22;32223;53.654;10.014;2023-03-23T16:23:40;10.70;99.90
46508;DHT22;32223;53.654;10.014;2023-03-23T16:26:09;10.70;99.90
46508;DHT22;32223;53.654;10.014;2023-03-23T16:28:35;10.80;99.90
46508;DHT22;32223;53.654;10.014;2023-03-23T16:31:01;10.90;99.90
46508;DHT22;32223;53.654;10.014;2023-03-23T16:33:27;11.00;99.90
46508;DHT22;32223;53.654;10.014;2023-03-23T16:35:52;11.00;99.90
46508;DHT22;32223;53.654;10.014;2023-03-23T16:38:18;11.00;99.90
46508;DHT22;32223;53.654;10.014;2023-03-23T16:40:45;10.90;99.90
46508;DHT22;32223;53.654;10.014;2023-03-23T16:43:11;10.80;99.90
46508;DHT22;32223;53.654;10.014;2023-03-23T16:45:40;10.70;99.90
46508;DHT22;32223;53.654;10.014;2023-03-23T16:48:06;10.70;99.90
46508;DHT22;32223;53.654;10.014;2023-03-23T16:50:33;10.70;99.90
46508;DHT22;32223;53.654;10.014;2023-03-23T16:52:59;10.70;99.90
46508;DHT22;32223;53.654;10.014;2023-03-23T16:55:25;10.60;99.90
46508;DHT22;32223;53.654;10.014;2023-03-23T16:57:52;10.70;99.90
46508;DHT22;32223;53.654;10.014;2023-03-23T17:00:18;10.60;99.90
46508;DHT22;32223;53.654;10.014;2023-03-23T17:02:45;10.50;99.90
46508;DHT22;32223;53.654;10.014;2023-03-23T17:05:12;10.50;99.90
46508;DHT22;32223;53.654;10.014;2023-03-23T17:07:39;10.40;99.90
46508;DHT22;32223;53.654;10.014;2023-03-23T17:10:07;10.40;99.90
46508;DHT22;32223;53.654;10.014;2023-03-23T17:12:34;10.40;99.90
46508;DHT22;32223;53.654;10.014;2023-03-23T17:15:00;10.40;99.90
46508;DHT22;32223;53.654;10.014;2023-03-23T17:17:25;10.40;99.90